createdAt,value
2022-08-11T00:02:05.557Z,16.37
2022-08-11T00:07:20.331Z,16.05
2022-08-11T00:12:23.588Z,16.16
2022-08-11T00:17:30.331Z,16.13
2022-08-11T00:22:39.158Z,15.63
2022-08-11T00:27:43.717Z,15.85
2022-08-11T00:32:56.236Z,15.79
2022-08-11T00:38:01.600Z,15.76
2022-08-11T00:43:20.751Z,15.65
2022-08-11T00:48:29.461Z,15.66
2022-08-11T00:53:46.231Z,15.13
2022-08-11T00:59:34.152Z,15.42
2022-08-11T01:05:10.144Z,15.40
2022-08-11T01:10:43.149Z,15.21
2022-08-11T01:16:05.189Z,15.24
2022-08-11T01:21:55.215Z,15.23
2022-08-11T01:27:37.730Z,15.23
2022-08-11T01:33:14.495Z,15.14
2022-08-11T01:39:02.235Z,15.18
2022-08-11T01:44:36.685Z,14.97
2022-08-11T01:50:08.589Z,14.77
2022-08-11T01:55:19.237Z,14.79
2022-08-11T02:00:30.973Z,14.70
2022-08-11T02:06:01.278Z,14.77
2022-08-11T02:11:35.641Z,14.47
2022-08-11T02:17:00.130Z,14.49
2022-08-11T02:22:27.410Z,14.57
2022-08-11T02:27:40.999Z,14.41
2022-08-11T02:33:10.066Z,14.38
2022-08-11T02:38:20.088Z,14.33
2022-08-11T02:43:31.215Z,14.26
2022-08-11T02:49:17.352Z,14.17
2022-08-11T02:54:28.269Z,14.10
2022-08-11T02:59:53.464Z,13.94
2022-08-11T03:05:17.655Z,13.93
2022-08-11T03:10:25.401Z,13.94
2022-08-11T03:16:01.303Z,13.85
2022-08-11T03:21:11.359Z,13.76
2022-08-11T03:26:27.067Z,13.64
2022-08-11T03:31:36.328Z,13.59
2022-08-11T03:37:16.664Z,13.39
2022-08-11T03:42:28.129Z,13.37
2022-08-11T03:48:07.203Z,13.31
2022-08-11T03:53:17.832Z,13.44
2022-08-11T03:58:42.003Z,13.20
2022-08-11T04:04:19.812Z,13.34
2022-08-11T04:09:55.778Z,13.52
2022-08-11T04:15:32.153Z,13.36
2022-08-11T04:20:52.948Z,13.60
2022-08-11T04:26:22.451Z,13.46
2022-08-11T04:31:51.856Z,13.33
2022-08-11T04:37:35.771Z,13.72
2022-08-11T04:43:23.569Z,16.20
2022-08-11T04:49:11.116Z,17.16
2022-08-11T04:54:45.504Z,17.64
2022-08-11T05:00:24.501Z,16.56
2022-08-11T05:05:56.212Z,16.65
2022-08-11T05:11:12.995Z,16.28
2022-08-11T05:16:37.978Z,16.31
2022-08-11T05:22:04.614Z,16.34
2022-08-11T05:27:27.930Z,17.22
2022-08-11T05:32:59.383Z,17.05
2022-08-11T05:38:28.420Z,17.14
2022-08-11T05:44:19.933Z,17.44
2022-08-11T05:49:31.792Z,17.52
2022-08-11T05:54:54.592Z,17.98
2022-08-11T06:00:02.260Z,17.95
2022-08-11T06:05:26.543Z,18.62
2022-08-11T06:10:34.411Z,19.66
2022-08-11T06:15:46.775Z,20.31
2022-08-11T06:20:51.441Z,21.49
2022-08-11T06:25:56.319Z,21.89
2022-08-11T06:31:01.189Z,21.90
2022-08-11T06:36:07.901Z,22.17
2022-08-11T06:41:33.532Z,21.81
2022-08-11T06:46:39.157Z,22.32
2022-08-11T06:51:42.567Z,22.88
2022-08-11T06:57:28.910Z,22.29
2022-08-11T07:02:33.872Z,22.10
2022-08-11T07:08:34.322Z,21.62
2022-08-11T07:13:58.036Z,22.61
2022-08-11T07:19:21.840Z,22.85
2022-08-11T07:24:58.735Z,23.79
2022-08-11T07:30:10.612Z,22.91
2022-08-11T07:35:17.492Z,23.58
2022-08-11T07:40:23.594Z,22.90
2022-08-11T07:45:47.136Z,24.38
2022-08-11T07:51:08.042Z,24.75
2022-08-11T07:56:17.373Z,23.90
2022-08-11T08:01:45.012Z,25.40
2022-08-11T08:07:06.312Z,26.38
2022-08-11T08:12:28.037Z,26.12
2022-08-11T08:18:25.413Z,26.55
2022-08-11T08:23:15.759Z,25.95
2022-08-11T08:28:21.967Z,26.44
2022-08-11T08:33:30.431Z,27.16
2022-08-11T08:38:33.589Z,25.35
2022-08-11T08:43:49.068Z,25.44
2022-08-11T08:48:54.476Z,25.86
2022-08-11T08:54:04.743Z,26.10
2022-08-11T08:59:08.921Z,27.57
2022-08-11T09:04:18.955Z,27.11
2022-08-11T09:09:24.660Z,29.06
2022-08-11T09:14:47.439Z,28.03
2022-08-11T09:19:58.744Z,27.23
2022-08-11T09:25:19.268Z,27.50
2022-08-11T09:30:22.591Z,27.96
2022-08-11T09:35:29.117Z,28.67
2022-08-11T09:40:33.666Z,27.16
2022-08-11T09:45:40.360Z,27.54
2022-08-11T09:50:47.003Z,27.27
2022-08-11T09:55:51.972Z,27.95
2022-08-11T10:01:02.241Z,27.43
2022-08-11T10:06:33.059Z,25.67
2022-08-11T10:11:39.613Z,26.39
2022-08-11T10:16:43.460Z,26.75
2022-08-11T10:22:12.071Z,27.45
2022-08-11T10:27:16.184Z,28.20
2022-08-11T10:32:57.880Z,27.69
2022-08-11T10:38:08.253Z,26.86
2022-08-11T10:44:01.602Z,27.64
2022-08-11T10:48:42.506Z,26.81
2022-08-11T10:54:06.739Z,27.28
2022-08-11T10:59:15.594Z,28.42
2022-08-11T11:04:19.944Z,27.77
2022-08-11T11:09:30.201Z,27.99
2022-08-11T11:14:58.266Z,26.95
2022-08-11T11:20:06.772Z,27.96
2022-08-11T11:25:21.870Z,28.25
2022-08-11T11:30:33.884Z,28.15
2022-08-11T11:35:50.666Z,28.65
2022-08-11T11:41:09.302Z,28.51
2022-08-11T11:46:13.934Z,27.67
2022-08-11T11:51:17.510Z,27.53
2022-08-11T11:56:25.029Z,28.12
2022-08-11T12:01:28.866Z,28.21
2022-08-11T12:06:33.268Z,27.77
2022-08-11T12:11:57.650Z,26.99
2022-08-11T12:17:01.654Z,25.54
2022-08-11T12:22:22.598Z,27.02
2022-08-11T12:27:28.919Z,27.42
2022-08-11T12:32:35.594Z,27.11
2022-08-11T12:37:43.668Z,27.13
2022-08-11T12:43:20.781Z,27.14
2022-08-11T12:48:58.828Z,27.27
2022-08-11T12:54:22.722Z,27.00
2022-08-11T12:59:45.135Z,27.17
2022-08-11T13:04:59.297Z,27.69
2022-08-11T13:10:04.287Z,27.39
2022-08-11T13:15:11.765Z,27.36
2022-08-11T13:20:17.463Z,27.77
2022-08-11T13:25:23.013Z,27.44
2022-08-11T13:30:48.368Z,27.31
2022-08-11T13:35:55.943Z,27.76
2022-08-11T13:40:59.483Z,27.43
2022-08-11T13:46:18.028Z,27.37
2022-08-11T13:51:35.244Z,27.11
2022-08-11T13:56:40.822Z,26.99
2022-08-11T14:02:20.932Z,26.17
2022-08-11T14:07:15.713Z,27.42
2022-08-11T14:12:41.482Z,27.73
2022-08-11T14:17:48.635Z,27.94
2022-08-11T14:22:53.720Z,27.58
2022-08-11T14:28:30.498Z,28.07
2022-08-11T14:33:22.215Z,27.58
2022-08-11T14:38:25.711Z,26.95
2022-08-11T14:44:12.296Z,26.74
2022-08-11T14:49:12.127Z,27.38
2022-08-11T14:54:33.809Z,26.87
2022-08-11T14:59:37.556Z,26.36
2022-08-11T15:04:42.207Z,26.76
2022-08-11T15:10:10.146Z,27.22
2022-08-11T15:15:28.851Z,27.10
2022-08-11T15:20:53.924Z,27.41
2022-08-11T15:25:59.579Z,26.75
2022-08-11T15:31:22.169Z,26.63
2022-08-11T15:36:47.864Z,26.90
2022-08-11T15:42:16.901Z,26.68
2022-08-11T15:47:24.057Z,27.05
2022-08-11T15:52:32.969Z,27.12
2022-08-11T15:57:55.914Z,26.58
2022-08-11T16:03:18.750Z,26.31
2022-08-11T16:08:32.919Z,26.48
2022-08-11T16:13:57.547Z,26.86
2022-08-11T16:19:04.890Z,26.43
2022-08-11T16:27:03.922Z,26.44
2022-08-11T16:29:38.214Z,26.08
2022-08-11T16:35:00.427Z,26.60
2022-08-11T16:40:06.704Z,26.32
2022-08-11T16:45:33.301Z,26.10
2022-08-11T16:50:37.500Z,25.98
2022-08-11T16:55:52.642Z,25.73
2022-08-11T17:00:58.815Z,25.67
2022-08-11T17:06:20.996Z,25.64
2022-08-11T17:11:57.518Z,25.40
2022-08-11T17:17:03.989Z,25.43
2022-08-11T17:22:25.334Z,25.29
2022-08-11T17:27:31.268Z,25.24
2022-08-11T17:32:57.141Z,25.10
2022-08-11T17:38:06.667Z,25.11
2022-08-11T17:43:28.857Z,24.79
2022-08-11T17:48:34.593Z,24.65
2022-08-11T17:54:09.952Z,24.65
2022-08-11T17:59:43.803Z,24.49
2022-08-11T18:04:54.170Z,24.37
2022-08-11T18:10:15.214Z,24.30
2022-08-11T18:15:37.479Z,24.09
2022-08-11T18:21:10.973Z,23.91
2022-08-11T18:26:34.346Z,23.74
2022-08-11T18:32:02.991Z,23.52
2022-08-11T18:37:29.673Z,23.40
2022-08-11T18:42:51.827Z,23.36
2022-08-11T18:48:20.897Z,23.15
2022-08-11T18:53:42.630Z,22.90
2022-08-11T18:59:06.510Z,22.95
2022-08-11T19:04:30.064Z,22.74
2022-08-11T19:09:54.779Z,22.50
2022-08-11T19:15:17.254Z,22.22
2022-08-11T19:20:42.380Z,22.08
2022-08-11T19:26:04.437Z,22.04
2022-08-11T19:31:27.306Z,21.91
2022-08-11T19:36:50.135Z,21.69
2022-08-11T19:42:11.464Z,21.67
2022-08-11T19:47:35.378Z,21.54
2022-08-11T19:52:59.550Z,21.43
2022-08-11T19:58:20.851Z,21.22
2022-08-11T20:03:41.706Z,20.96
2022-08-11T20:09:06.112Z,20.82
2022-08-11T20:14:28.480Z,20.79
2022-08-11T20:19:55.539Z,20.69
2022-08-11T20:25:19.591Z,20.39
2022-08-11T20:30:41.329Z,20.35
2022-08-11T20:36:01.666Z,20.28
2022-08-11T20:41:26.051Z,20.14
2022-08-11T20:46:48.229Z,19.98
2022-08-11T20:52:10.091Z,19.81
2022-08-11T20:58:00.013Z,19.66
2022-08-11T21:03:35.298Z,19.23
2022-08-11T21:08:59.361Z,19.37
2022-08-11T21:14:25.977Z,19.17
2022-08-11T21:20:01.691Z,19.13
2022-08-11T21:25:29.770Z,19.05
2022-08-11T21:30:57.524Z,18.93
2022-08-11T21:36:18.190Z,18.62
2022-08-11T21:41:39.012Z,18.57
2022-08-11T21:47:00.893Z,18.02
2022-08-11T21:52:21.661Z,18.26
2022-08-11T21:57:48.102Z,18.26
2022-08-11T22:03:12.254Z,18.09
2022-08-11T22:08:33.408Z,17.98
2022-08-11T22:14:06.353Z,17.87
2022-08-11T22:19:30.650Z,17.68
2022-08-11T22:24:52.082Z,17.37
2022-08-11T22:30:13.359Z,17.44
2022-08-11T22:35:37.023Z,17.46
2022-08-11T22:40:58.100Z,17.29
2022-08-11T22:46:18.346Z,17.16
2022-08-11T22:51:42.146Z,17.01
2022-08-11T22:57:03.303Z,16.98
2022-08-11T23:02:25.594Z,16.88
2022-08-11T23:07:51.748Z,16.73
2022-08-11T23:13:13.203Z,16.48
2022-08-11T23:18:34.932Z,16.51
2022-08-11T23:23:58.458Z,16.59
2022-08-11T23:29:22.282Z,16.43
2022-08-11T23:35:04.223Z,16.27
2022-08-11T23:40:31.030Z,16.03
2022-08-11T23:45:51.360Z,16.12
2022-08-11T23:51:12.995Z,16.04
2022-08-11T23:56:35.590Z,15.99
